sensor_id;sensor_type;location;lat;lon;timestamp;pressure;altitude;pressure_sealevel;temperature;humidity
74270;BME280;62754;48.252;11.654;2023-07-08T00:01:19;96365.28;;;16.23;59.79
74270;BME280;62754;48.252;11.654;2023-07-08T00:03:45;96353.13;;;16.23;60.38
74270;BME280;62754;48.252;11.654;2023-07-08T00:06:21;96350.69;;;16.22;60.01
74270;BME280;62754;48.252;11.654;2023-07-08T00:08:47;96347.72;;;16.16;60.84
74270;BME280;62754;48.252;11.654;2023-07-08T00:11:14;96342.00;;;16.13;61.58
74270;BME280;62754;48.252;11.654;2023-07-08T00:13:42;96344.44;;;16.14;61.95
74270;BME280;62754;48.252;11.654;2023-07-08T00:16:10;96337.38;;;16.07;62.84
74270;BME280;62754;48.252;11.654;2023-07-08T00:18:39;96340.16;;;16.05;63.20
74270;BME280;62754;48.252;11.654;2023-07-08T00:21:15;96343.50;;;15.98;63.87
74270;BME280;62754;48.252;11.654;2023-07-08T00:23:46;96347.06;;;15.97;64.28
74270;BME280;62754;48.252;11.654;2023-07-08T00:28:49;96341.88;;;15.97;63.93
74270;BME280;62754;48.252;11.654;2023-07-08T00:31:17;96339.56;;;15.94;64.01
74270;BME280;62754;48.252;11.654;2023-07-08T00:33:45;96339.72;;;15.92;64.05
74270;BME280;62754;48.252;11.654;2023-07-08T00:36:12;96340.09;;;15.97;63.57
74270;BME280;62754;48.252;11.654;2023-07-08T00:38:39;96337.09;;;15.92;63.45
74270;BME280;62754;48.252;11.654;2023-07-08T00:41:16;96333.25;;;15.96;62.40
74270;BME280;62754;48.252;11.654;2023-07-08T00:43:52;96340.09;;;15.97;62.72
74270;BME280;62754;48.252;11.654;2023-07-08T00:51:22;96336.34;;;16.00;62.13
74270;BME280;62754;48.252;11.654;2023-07-08T00:53:50;96334.56;;;16.00;62.50
74270;BME280;62754;48.252;11.654;2023-07-08T00:56:24;96334.13;;;16.05;62.23
74270;BME280;62754;48.252;11.654;2023-07-08T00:58:58;96340.16;;;16.05;62.60
74270;BME280;62754;48.252;11.654;2023-07-08T01:01:26;96339.47;;;16.03;62.58
74270;BME280;62754;48.252;11.654;2023-07-08T01:03:56;96341.22;;;15.95;62.58
74270;BME280;62754;48.252;11.654;2023-07-08T01:06:24;96344.84;;;16.02;62.92
74270;BME280;62754;48.252;11.654;2023-07-08T01:08:53;96336.34;;;16.00;62.71
74270;BME280;62754;48.252;11.654;2023-07-08T01:11:20;96334.94;;;16.05;62.83
74270;BME280;62754;48.252;11.654;2023-07-08T01:13:47;96332.59;;;15.94;63.71
74270;BME280;62754;48.252;11.654;2023-07-08T01:16:15;96329.69;;;15.97;62.96
74270;BME280;62754;48.252;11.654;2023-07-08T01:18:43;96330.94;;;15.93;63.00
74270;BME280;62754;48.252;11.654;2023-07-08T01:24:07;96332.13;;;15.81;63.43
74270;BME280;62754;48.252;11.654;2023-07-08T01:26:40;96339.56;;;15.76;63.99
74270;BME280;62754;48.252;11.654;2023-07-08T01:29:10;96337.47;;;15.80;64.63
74270;BME280;62754;48.252;11.654;2023-07-08T01:31:41;96349.22;;;15.84;64.06
74270;BME280;62754;48.252;11.654;2023-07-08T01:34:10;96349.72;;;15.87;63.81
74270;BME280;62754;48.252;11.654;2023-07-08T01:36:42;96343.88;;;15.85;63.17
74270;BME280;62754;48.252;11.654;2023-07-08T01:39:16;96345.22;;;15.89;63.02
74270;BME280;62754;48.252;11.654;2023-07-08T01:41:46;96351.53;;;15.87;63.20
74270;BME280;62754;48.252;11.654;2023-07-08T01:44:32;96354.25;;;15.85;63.51
74270;BME280;62754;48.252;11.654;2023-07-08T01:49:28;96358.13;;;15.81;64.00
74270;BME280;62754;48.252;11.654;2023-07-08T01:51:57;96358.25;;;15.80;63.81
74270;BME280;62754;48.252;11.654;2023-07-08T01:54:24;96356.13;;;15.75;64.46
74270;BME280;62754;48.252;11.654;2023-07-08T01:56:55;96350.03;;;15.66;65.13
74270;BME280;62754;48.252;11.654;2023-07-08T01:59:23;96353.66;;;15.56;65.90
74270;BME280;62754;48.252;11.654;2023-07-08T02:01:51;96342.78;;;15.43;67.39
74270;BME280;62754;48.252;11.654;2023-07-08T02:04:19;96351.44;;;15.34;67.96
74270;BME280;62754;48.252;11.654;2023-07-08T02:06:52;96338.22;;;15.27;68.90
74270;BME280;62754;48.252;11.654;2023-07-08T02:09:18;96339.34;;;15.24;69.20
74270;BME280;62754;48.252;11.654;2023-07-08T02:11:44;96336.88;;;15.23;69.00
74270;BME280;62754;48.252;11.654;2023-07-08T02:14:12;96340.72;;;15.19;69.35
74270;BME280;62754;48.252;11.654;2023-07-08T02:16:38;96339.59;;;15.21;69.29
74270;BME280;62754;48.252;11.654;2023-07-08T02:19:03;96340.44;;;15.22;69.57
74270;BME280;62754;48.252;11.654;2023-07-08T02:21:31;96343.53;;;15.25;69.06
74270;BME280;62754;48.252;11.654;2023-07-08T02:23:57;96332.16;;;15.36;68.66
74270;BME280;62754;48.252;11.654;2023-07-08T02:26:23;96336.09;;;15.40;68.28
74270;BME280;62754;48.252;11.654;2023-07-08T02:28:49;96331.47;;;15.34;68.07
74270;BME280;62754;48.252;11.654;2023-07-08T02:31:15;96327.84;;;15.27;68.11
74270;BME280;62754;48.252;11.654;2023-07-08T02:33:41;96333.16;;;15.25;68.10
74270;BME280;62754;48.252;11.654;2023-07-08T02:36:06;96338.81;;;15.21;68.51
74270;BME280;62754;48.252;11.654;2023-07-08T02:38:34;96331.97;;;15.20;68.02
74270;BME280;62754;48.252;11.654;2023-07-08T02:41:00;96330.00;;;15.32;68.50
74270;BME280;62754;48.252;11.654;2023-07-08T02:43:28;96332.16;;;15.36;68.48
74270;BME280;62754;48.252;11.654;2023-07-08T02:45:56;96323.03;;;15.32;68.99
74270;BME280;62754;48.252;11.654;2023-07-08T02:48:25;96330.44;;;15.27;69.55
74270;BME280;62754;48.252;11.654;2023-07-08T02:50:50;96332.50;;;15.23;69.60
74270;BME280;62754;48.252;11.654;2023-07-08T02:53:18;96327.41;;;15.32;69.52
74270;BME280;62754;48.252;11.654;2023-07-08T02:55:44;96339.34;;;15.24;69.59
74270;BME280;62754;48.252;11.654;2023-07-08T02:58:12;96334.50;;;15.30;69.39
74270;BME280;62754;48.252;11.654;2023-07-08T03:00:37;96330.50;;;15.17;70.08
74270;BME280;62754;48.252;11.654;2023-07-08T03:03:04;96333.16;;;15.25;69.26
74270;BME280;62754;48.252;11.654;2023-07-08T03:05:34;96330.00;;;15.32;69.29
74270;BME280;62754;48.252;11.654;2023-07-08T03:08:02;96328.53;;;15.29;69.30
74270;BME280;62754;48.252;11.654;2023-07-08T03:10:32;96332.22;;;15.26;68.90
74270;BME280;62754;48.252;11.654;2023-07-08T03:12:58;96333.56;;;15.31;68.71
74270;BME280;62754;48.252;11.654;2023-07-08T03:15:26;96335.53;;;15.19;68.45
74270;BME280;62754;48.252;11.654;2023-07-08T03:17:52;96332.50;;;15.23;68.02
74270;BME280;62754;48.252;11.654;2023-07-08T03:20:17;96337.72;;;15.14;67.94
74270;BME280;62754;48.252;11.654;2023-07-08T03:22:46;96338.34;;;15.25;68.44
74270;BME280;62754;48.252;11.654;2023-07-08T03:25:13;96340.38;;;15.32;67.95
74270;BME280;62754;48.252;11.654;2023-07-08T03:27:39;96332.06;;;15.28;67.89
74270;BME280;62754;48.252;11.654;2023-07-08T03:30:05;96338.19;;;15.37;67.56
74270;BME280;62754;48.252;11.654;2023-07-08T03:32:31;96331.47;;;15.34;67.45
74270;BME280;62754;48.252;11.654;2023-07-08T03:34:59;96332.16;;;15.36;67.59
74270;BME280;62754;48.252;11.654;2023-07-08T03:37:27;96328.94;;;15.24;68.11
74270;BME280;62754;48.252;11.654;2023-07-08T03:39:56;96327.91;;;15.17;68.72
74270;BME280;62754;48.252;11.654;2023-07-08T03:42:21;96331.81;;;15.21;69.00
74270;BME280;62754;48.252;11.654;2023-07-08T03:44:49;96321.91;;;15.35;68.69
74270;BME280;62754;48.252;11.654;2023-07-08T03:47:17;96319.28;;;15.44;68.51
74270;BME280;62754;48.252;11.654;2023-07-08T03:49:43;96322.13;;;15.41;68.24
74270;BME280;62754;48.252;11.654;2023-07-08T03:52:14;96321.41;;;15.49;67.89
74270;BME280;62754;48.252;11.654;2023-07-08T03:54:44;96325.53;;;15.51;67.84
74270;BME280;62754;48.252;11.654;2023-07-08T03:57:09;96329.03;;;15.60;67.51
74270;BME280;62754;48.252;11.654;2023-07-08T03:59:35;96329.94;;;15.41;67.88
74270;BME280;62754;48.252;11.654;2023-07-08T04:02:03;96331.72;;;15.41;67.46
74270;BME280;62754;48.252;11.654;2023-07-08T04:04:34;96330.66;;;15.34;68.18
74270;BME280;62754;48.252;11.654;2023-07-08T04:07:04;96328.88;;;15.34;67.90
74270;BME280;62754;48.252;11.654;2023-07-08T04:09:32;96321.97;;;15.52;67.63
74270;BME280;62754;48.252;11.654;2023-07-08T04:11:58;96321.19;;;15.42;67.83
74270;BME280;62754;48.252;11.654;2023-07-08T04:14:24;96330.19;;;15.48;67.91
74270;BME280;62754;48.252;11.654;2023-07-08T04:16:58;96331.78;;;15.49;67.54
74270;BME280;62754;48.252;11.654;2023-07-08T04:19:25;96332.66;;;15.67;67.80
74270;BME280;62754;48.252;11.654;2023-07-08T04:21:53;96335.19;;;15.77;67.56
74270;BME280;62754;48.252;11.654;2023-07-08T04:24:19;96332.22;;;15.89;67.50
74270;BME280;62754;48.252;11.654;2023-07-08T04:26:47;96331.53;;;15.87;67.52
74270;BME280;62754;48.252;11.654;2023-07-08T04:29:17;96332.66;;;16.02;67.17
74270;BME280;62754;48.252;11.654;2023-07-08T04:31:45;96339.13;;;15.98;66.82
74270;BME280;62754;48.252;11.654;2023-07-08T04:34:15;96340.72;;;15.99;66.92
74270;BME280;62754;48.252;11.654;2023-07-08T04:36:44;96338.66;;;16.03;67.35
74270;BME280;62754;48.252;11.654;2023-07-08T04:39:15;96340.44;;;16.20;65.87
74270;BME280;62754;48.252;11.654;2023-07-08T04:41:41;96336.69;;;16.23;65.66
74270;BME280;62754;48.252;11.654;2023-07-08T04:44:07;96346.50;;;16.29;65.50
74270;BME280;62754;48.252;11.654;2023-07-08T04:49:03;96351.72;;;16.29;65.89
74270;BME280;62754;48.252;11.654;2023-07-08T04:51:29;96364.59;;;16.38;66.90
74270;BME280;62754;48.252;11.654;2023-07-08T04:53:55;96368.91;;;16.47;66.32
74270;BME280;62754;48.252;11.654;2023-07-08T04:56:20;96368.16;;;16.55;65.61
74270;BME280;62754;48.252;11.654;2023-07-08T04:58:46;96373.25;;;16.64;65.60
74270;BME280;62754;48.252;11.654;2023-07-08T05:01:14;96385.41;;;16.82;65.40
74270;BME280;62754;48.252;11.654;2023-07-08T05:03:42;96380.22;;;16.82;65.40
74270;BME280;62754;48.252;11.654;2023-07-08T05:06:10;96386.13;;;16.92;65.03
74270;BME280;62754;48.252;11.654;2023-07-08T05:08:38;96388.56;;;16.93;64.14
74270;BME280;62754;48.252;11.654;2023-07-08T05:11:04;96393.16;;;16.99;65.22
74270;BME280;62754;48.252;11.654;2023-07-08T05:13:30;96394.38;;;17.13;64.83
74270;BME280;62754;48.252;11.654;2023-07-08T05:16:00;96408.53;;;17.19;64.65
74270;BME280;62754;48.252;11.654;2023-07-08T05:18:28;96408.66;;;17.43;64.56
74270;BME280;62754;48.252;11.654;2023-07-08T05:20:53;96403.44;;;17.43;63.96
74270;BME280;62754;48.252;11.654;2023-07-08T05:23:22;96407.63;;;17.28;63.75
74270;BME280;62754;48.252;11.654;2023-07-08T05:25:48;96398.81;;;17.21;63.71
74270;BME280;62754;48.252;11.654;2023-07-08T05:28:13;96399.31;;;17.24;65.46
74270;BME280;62754;48.252;11.654;2023-07-08T05:30:42;96405.44;;;17.15;64.25
74270;BME280;62754;48.252;11.654;2023-07-08T05:33:10;96394.31;;;17.39;64.14
74270;BME280;62754;48.252;11.654;2023-07-08T05:35:36;96391.69;;;17.39;63.18
74270;BME280;62754;48.252;11.654;2023-07-08T05:38:04;96395.28;;;17.38;63.08
74270;BME280;62754;48.252;11.654;2023-07-08T05:40:30;96398.25;;;17.51;63.02
74270;BME280;62754;48.252;11.654;2023-07-08T05:42:58;96410.97;;;17.54;62.73
74270;BME280;62754;48.252;11.654;2023-07-08T05:45:26;96408.38;;;17.54;63.31
74270;BME280;62754;48.252;11.654;2023-07-08T05:47:54;96402.72;;;17.58;61.45
74270;BME280;62754;48.252;11.654;2023-07-08T05:50:20;96405.84;;;17.70;61.87
74270;BME280;62754;48.252;11.654;2023-07-08T05:52:45;96399.50;;;17.81;61.32
74270;BME280;62754;48.252;11.654;2023-07-08T05:55:11;96402.94;;;17.81;61.17
74270;BME280;62754;48.252;11.654;2023-07-08T05:57:37;96407.53;;;17.95;61.89
74270;BME280;62754;48.252;11.654;2023-07-08T06:00:04;96406.91;;;18.18;61.38
74270;BME280;62754;48.252;11.654;2023-07-08T06:02:30;96400.06;;;18.33;61.14
74270;BME280;62754;48.252;11.654;2023-07-08T06:04:55;96389.66;;;18.49;60.65
74270;BME280;62754;48.252;11.654;2023-07-08T06:07:23;96394.22;;;18.71;60.32
74270;BME280;62754;48.252;11.654;2023-07-08T06:09:49;96378.53;;;18.79;60.62
74270;BME280;62754;48.252;11.654;2023-07-08T06:12:15;96372.13;;;18.90;60.19
74270;BME280;62754;48.252;11.654;2023-07-08T06:14:43;96365.13;;;18.90;59.86
74270;BME280;62754;48.252;11.654;2023-07-08T06:17:11;96366.28;;;18.88;59.06
74270;BME280;62754;48.252;11.654;2023-07-08T06:19:37;96377.03;;;18.85;59.08
74270;BME280;62754;48.252;11.654;2023-07-08T06:22:05;96383.41;;;18.82;59.04
74270;BME280;62754;48.252;11.654;2023-07-08T06:24:33;96387.31;;;18.94;58.67
74270;BME280;62754;48.252;11.654;2023-07-08T06:26:58;96392.69;;;18.93;58.29
74270;BME280;62754;48.252;11.654;2023-07-08T06:29:24;96402.09;;;19.18;58.71
74270;BME280;62754;48.252;11.654;2023-07-08T06:31:52;96391.06;;;19.47;57.40
74270;BME280;62754;48.252;11.654;2023-07-08T06:34:20;96386.47;;;19.57;56.85
74270;BME280;62754;48.252;11.654;2023-07-08T06:36:46;96385.25;;;19.98;57.28
74270;BME280;62754;48.252;11.654;2023-07-08T06:39:11;96386.00;;;20.07;55.63
74270;BME280;62754;48.252;11.654;2023-07-08T06:41:37;96380.13;;;20.05;55.00
74270;BME280;62754;48.252;11.654;2023-07-08T06:44:06;96386.78;;;20.16;55.48
74270;BME280;62754;48.252;11.654;2023-07-08T06:46:31;96387.22;;;20.19;53.12
74270;BME280;62754;48.252;11.654;2023-07-08T06:48:57;96390.13;;;20.47;52.79
74270;BME280;62754;48.252;11.654;2023-07-08T06:51:25;96388.34;;;20.62;52.90
74270;BME280;62754;48.252;11.654;2023-07-08T06:53:51;96392.19;;;20.74;52.39
74270;BME280;62754;48.252;11.654;2023-07-08T06:56:19;96393.28;;;20.95;53.35
74270;BME280;62754;48.252;11.654;2023-07-08T06:58:47;96393.38;;;20.86;52.50
74270;BME280;62754;48.252;11.654;2023-07-08T07:01:13;96396.72;;;20.95;52.70
74270;BME280;62754;48.252;11.654;2023-07-08T07:03:42;96399.72;;;20.92;52.53
74270;BME280;62754;48.252;11.654;2023-07-08T07:06:13;96398.00;;;20.84;52.22
74270;BME280;62754;48.252;11.654;2023-07-08T07:08:39;96398.16;;;20.83;52.97
74270;BME280;62754;48.252;11.654;2023-07-08T07:11:07;96403.56;;;20.81;53.17
74270;BME280;62754;48.252;11.654;2023-07-08T07:13:37;96406.75;;;20.91;52.98
74270;BME280;62754;48.252;11.654;2023-07-08T07:16:08;96407.75;;;21.05;53.44
74270;BME280;62754;48.252;11.654;2023-07-08T07:18:33;96411.41;;;21.19;52.90
74270;BME280;62754;48.252;11.654;2023-07-08T07:21:02;96419.78;;;21.00;52.28
74270;BME280;62754;48.252;11.654;2023-07-08T07:23:27;96426.00;;;20.99;52.72
74270;BME280;62754;48.252;11.654;2023-07-08T07:25:58;96413.88;;;20.83;52.35
74270;BME280;62754;48.252;11.654;2023-07-08T07:28:23;96415.88;;;20.81;52.95
74270;BME280;62754;48.252;11.654;2023-07-08T07:31:00;96424.38;;;20.98;53.11
74270;BME280;62754;48.252;11.654;2023-07-08T07:33:26;96415.16;;;21.02;52.41
74270;BME280;62754;48.252;11.654;2023-07-08T07:35:54;96415.91;;;21.25;51.75
74270;BME280;62754;48.252;11.654;2023-07-08T07:38:20;96408.31;;;21.59;51.38
74270;BME280;62754;48.252;11.654;2023-07-08T07:40:51;96403.28;;;21.94;49.86
74270;BME280;62754;48.252;11.654;2023-07-08T07:43:22;96421.03;;;22.13;49.05
74270;BME280;62754;48.252;11.654;2023-07-08T07:45:58;96423.66;;;22.27;50.26
74270;BME280;62754;48.252;11.654;2023-07-08T07:48:26;96424.38;;;22.21;49.31
74270;BME280;62754;48.252;11.654;2023-07-08T07:50:52;96425.56;;;22.19;49.46
74270;BME280;62754;48.252;11.654;2023-07-08T07:53:17;96427.88;;;22.28;49.63
74270;BME280;62754;48.252;11.654;2023-07-08T07:55:46;96440.88;;;22.37;47.46
74270;BME280;62754;48.252;11.654;2023-07-08T07:58:14;96432.75;;;22.53;46.99
74270;BME280;62754;48.252;11.654;2023-07-08T08:00:40;96423.97;;;22.67;47.36
74270;BME280;62754;48.252;11.654;2023-07-08T08:03:07;96426.31;;;22.76;47.60
74270;BME280;62754;48.252;11.654;2023-07-08T08:05:35;96436.22;;;22.74;47.99
74270;BME280;62754;48.252;11.654;2023-07-08T08:08:03;96439.47;;;22.76;48.50
74270;BME280;62754;48.252;11.654;2023-07-08T08:10:33;96446.34;;;22.77;47.84
74270;BME280;62754;48.252;11.654;2023-07-08T08:12:59;96458.63;;;22.56;47.40
74270;BME280;62754;48.252;11.654;2023-07-08T08:15:30;96463.53;;;22.59;47.70
74270;BME280;62754;48.252;11.654;2023-07-08T08:17:59;96479.28;;;22.59;47.15
74270;BME280;62754;48.252;11.654;2023-07-08T08:20:28;96468.75;;;22.73;45.96
74270;BME280;62754;48.252;11.654;2023-07-08T08:22:56;96477.88;;;22.77;47.04
74270;BME280;62754;48.252;11.654;2023-07-08T08:25:25;96481.94;;;22.80;45.61
74270;BME280;62754;48.252;11.654;2023-07-08T08:27:51;96481.88;;;22.73;46.46
74270;BME280;62754;48.252;11.654;2023-07-08T08:30:21;96487.38;;;22.78;45.83
74270;BME280;62754;48.252;11.654;2023-07-08T08:32:49;96478.53;;;23.07;46.26
74270;BME280;62754;48.252;11.654;2023-07-08T08:35:17;96485.72;;;23.26;46.26
74270;BME280;62754;48.252;11.654;2023-07-08T08:37:43;96487.81;;;23.38;45.38
74270;BME280;62754;48.252;11.654;2023-07-08T08:40:15;96488.78;;;23.30;44.82
74270;BME280;62754;48.252;11.654;2023-07-08T08:42:51;96487.03;;;23.71;45.37
74270;BME280;62754;48.252;11.654;2023-07-08T08:45:19;96478.34;;;23.71;43.54
74270;BME280;62754;48.252;11.654;2023-07-08T08:47:48;96482.56;;;23.65;43.84
74270;BME280;62754;48.252;11.654;2023-07-08T08:52:52;96488.63;;;24.07;43.73
74270;BME280;62754;48.252;11.654;2023-07-08T08:55:21;96480.59;;;24.15;41.68
74270;BME280;62754;48.252;11.654;2023-07-08T08:57:57;96489.38;;;24.35;43.82
74270;BME280;62754;48.252;11.654;2023-07-08T09:00:29;96486.50;;;24.37;44.86
74270;BME280;62754;48.252;11.654;2023-07-08T09:03:12;96470.78;;;24.70;44.75
74270;BME280;62754;48.252;11.654;2023-07-08T09:05:43;96477.88;;;24.69;43.71
74270;BME280;62754;48.252;11.654;2023-07-08T09:08:21;96491.78;;;24.37;44.10
74270;BME280;62754;48.252;11.654;2023-07-08T09:10:54;96496.44;;;24.41;43.63
74270;BME280;62754;48.252;11.654;2023-07-08T09:13:31;96500.91;;;24.34;44.84
74270;BME280;62754;48.252;11.654;2023-07-08T09:21:41;96489.97;;;24.37;43.90
74270;BME280;62754;48.252;11.654;2023-07-08T09:24:19;96494.09;;;24.59;44.48
74270;BME280;62754;48.252;11.654;2023-07-08T09:26:50;96494.34;;;25.04;42.60
74270;BME280;62754;48.252;11.654;2023-07-08T09:29:21;96497.59;;;25.06;41.92
74270;BME280;62754;48.252;11.654;2023-07-08T09:31:47;96507.50;;;25.50;42.40
74270;BME280;62754;48.252;11.654;2023-07-08T09:34:19;96501.59;;;25.74;43.49
74270;BME280;62754;48.252;11.654;2023-07-08T09:36:49;96513.72;;;25.95;40.90
74270;BME280;62754;48.252;11.654;2023-07-08T09:39:19;96513.16;;;25.73;41.18
74270;BME280;62754;48.252;11.654;2023-07-08T09:41:48;96509.50;;;25.87;40.90
74270;BME280;62754;48.252;11.654;2023-07-08T09:44:23;96510.94;;;25.83;42.59
74270;BME280;62754;48.252;11.654;2023-07-08T09:46:49;96516.63;;;25.74;41.84
74270;BME280;62754;48.252;11.654;2023-07-08T09:51:46;96496.03;;;26.02;39.65
74270;BME280;62754;48.252;11.654;2023-07-08T09:54:12;96497.91;;;25.82;39.78
74270;BME280;62754;48.252;11.654;2023-07-08T09:56:54;96495.91;;;25.77;40.31
74270;BME280;62754;48.252;11.654;2023-07-08T09:59:26;96492.50;;;25.57;41.45
74270;BME280;62754;48.252;11.654;2023-07-08T10:01:56;96483.53;;;25.71;40.88
74270;BME280;62754;48.252;11.654;2023-07-08T10:04:23;96482.34;;;25.47;42.62
74270;BME280;62754;48.252;11.654;2023-07-08T10:06:54;96491.88;;;25.62;42.72
74270;BME280;62754;48.252;11.654;2023-07-08T10:09:24;96484.34;;;25.72;41.35
74270;BME280;62754;48.252;11.654;2023-07-08T10:12:01;96487.44;;;25.55;42.84
74270;BME280;62754;48.252;11.654;2023-07-08T10:14:30;96488.63;;;25.53;41.39
74270;BME280;62754;48.252;11.654;2023-07-08T10:16:59;96487.72;;;25.92;39.70
74270;BME280;62754;48.252;11.654;2023-07-08T10:19:30;96497.59;;;26.16;40.05
74270;BME280;62754;48.252;11.654;2023-07-08T10:30:16;96508.03;;;27.36;37.10
74270;BME280;62754;48.252;11.654;2023-07-08T10:36:09;96504.81;;;28.14;35.37
74270;BME280;62754;48.252;11.654;2023-07-08T10:39:06;96512.06;;;28.66;34.34
74270;BME280;62754;48.252;11.654;2023-07-08T10:58:44;96499.63;;;30.53;31.48
74270;BME280;62754;48.252;11.654;2023-07-08T11:01:29;96502.91;;;30.71;31.29
74270;BME280;62754;48.252;11.654;2023-07-08T11:09:06;96495.66;;;31.84;28.89
74270;BME280;62754;48.252;11.654;2023-07-08T11:14:12;96490.44;;;32.59;27.60
74270;BME280;62754;48.252;11.654;2023-07-08T11:17:15;96493.16;;;32.91;26.28
74270;BME280;62754;48.252;11.654;2023-07-08T11:20:15;96479.13;;;33.32;24.81
74270;BME280;62754;48.252;11.654;2023-07-08T11:23:08;96483.41;;;33.38;24.33
74270;BME280;62754;48.252;11.654;2023-07-08T11:25:42;96485.47;;;32.68;25.33
74270;BME280;62754;48.252;11.654;2023-07-08T11:28:13;96489.75;;;32.20;26.14
74270;BME280;62754;48.252;11.654;2023-07-08T11:30:41;96482.06;;;31.47;27.72
74270;BME280;62754;48.252;11.654;2023-07-08T11:33:11;96481.81;;;31.48;28.81
74270;BME280;62754;48.252;11.654;2023-07-08T11:35:42;96483.94;;;31.85;26.94
74270;BME280;62754;48.252;11.654;2023-07-08T11:38:15;96478.72;;;31.73;26.79
74270;BME280;62754;48.252;11.654;2023-07-08T11:40:58;96486.47;;;31.75;28.50
74270;BME280;62754;48.252;11.654;2023-07-08T11:43:27;96488.13;;;31.97;28.79
74270;BME280;62754;48.252;11.654;2023-07-08T11:45:57;96478.94;;;32.32;27.58
74270;BME280;62754;48.252;11.654;2023-07-08T11:48:29;96479.91;;;31.82;27.73
74270;BME280;62754;48.252;11.654;2023-07-08T11:50:58;96479.50;;;32.87;26.71
74270;BME280;62754;48.252;11.654;2023-07-08T11:56:03;96479.03;;;32.64;27.41
74270;BME280;62754;48.252;11.654;2023-07-08T11:58:31;96476.66;;;32.19;25.49
74270;BME280;62754;48.252;11.654;2023-07-08T12:03:37;96480.78;;;33.43;25.42
74270;BME280;62754;48.252;11.654;2023-07-08T12:08:56;96457.31;;;33.97;25.12
74270;BME280;62754;48.252;11.654;2023-07-08T12:11:35;96455.88;;;34.47;23.27
74270;BME280;62754;48.252;11.654;2023-07-08T12:14:04;96449.28;;;35.20;20.89
74270;BME280;62754;48.252;11.654;2023-07-08T12:16:31;96460.69;;;34.50;22.19
74270;BME280;62754;48.252;11.654;2023-07-08T12:18:59;96465.59;;;35.04;22.04
74270;BME280;62754;48.252;11.654;2023-07-08T12:21:28;96461.84;;;35.05;20.88
74270;BME280;62754;48.252;11.654;2023-07-08T12:24:02;96451.41;;;35.08;20.14
74270;BME280;62754;48.252;11.654;2023-07-08T12:26:31;96452.72;;;35.51;18.78
74270;BME280;62754;48.252;11.654;2023-07-08T12:29:02;96451.41;;;35.23;18.52
74270;BME280;62754;48.252;11.654;2023-07-08T12:31:32;96444.66;;;35.56;18.29
74270;BME280;62754;48.252;11.654;2023-07-08T12:34:01;96438.75;;;34.43;20.09
74270;BME280;62754;48.252;11.654;2023-07-08T12:36:30;96445.16;;;35.73;17.41
74270;BME280;62754;48.252;11.654;2023-07-08T12:38:59;96441.00;;;36.21;17.31
74270;BME280;62754;48.252;11.654;2023-07-08T12:41:33;96443.72;;;36.01;18.89
74270;BME280;62754;48.252;11.654;2023-07-08T12:44:04;96438.88;;;36.18;19.03
74270;BME280;62754;48.252;11.654;2023-07-08T12:46:33;96438.81;;;35.09;21.02
74270;BME280;62754;48.252;11.654;2023-07-08T12:48:59;96435.09;;;34.95;20.97
74270;BME280;62754;48.252;11.654;2023-07-08T12:51:27;96436.94;;;34.89;21.09
74270;BME280;62754;48.252;11.654;2023-07-08T12:53:57;96434.53;;;34.87;21.08
74270;BME280;62754;48.252;11.654;2023-07-08T12:56:23;96440.44;;;34.79;19.58
74270;BME280;62754;48.252;11.654;2023-07-08T12:58:57;96433.44;;;34.63;20.43
74270;BME280;62754;48.252;11.654;2023-07-08T13:01:26;96434.00;;;34.70;20.17
74270;BME280;62754;48.252;11.654;2023-07-08T13:04:01;96438.00;;;34.73;19.71
74270;BME280;62754;48.252;11.654;2023-07-08T13:06:32;96433.19;;;35.30;18.77
74270;BME280;62754;48.252;11.654;2023-07-08T13:09:33;96441.25;;;35.25;18.54
74270;BME280;62754;48.252;11.654;2023-07-08T13:12:10;96436.91;;;36.29;18.25
74270;BME280;62754;48.252;11.654;2023-07-08T13:14:38;96436.94;;;36.24;17.92
74270;BME280;62754;48.252;11.654;2023-07-08T13:17:08;96438.34;;;36.11;17.63
74270;BME280;62754;48.252;11.654;2023-07-08T13:19:33;96436.09;;;37.40;16.71
74270;BME280;62754;48.252;11.654;2023-07-08T13:22:00;96443.88;;;37.13;16.88
74270;BME280;62754;48.252;11.654;2023-07-08T13:24:30;96443.13;;;37.36;17.20
74270;BME280;62754;48.252;11.654;2023-07-08T13:27:03;96437.50;;;36.21;18.32
74270;BME280;62754;48.252;11.654;2023-07-08T13:29:34;96437.22;;;35.03;18.38
74270;BME280;62754;48.252;11.654;2023-07-08T13:32:09;96441.19;;;35.46;18.39
74270;BME280;62754;48.252;11.654;2023-07-08T13:34:35;96422.97;;;35.63;18.12
74270;BME280;62754;48.252;11.654;2023-07-08T13:37:01;96422.22;;;37.28;16.67
74270;BME280;62754;48.252;11.654;2023-07-08T13:39:34;96430.94;;;36.81;17.07
74270;BME280;62754;48.252;11.654;2023-07-08T13:42:00;96431.59;;;36.68;17.41
74270;BME280;62754;48.252;11.654;2023-07-08T13:44:27;96428.03;;;37.11;17.55
74270;BME280;62754;48.252;11.654;2023-07-08T13:46:54;96428.91;;;37.02;17.46
74270;BME280;62754;48.252;11.654;2023-07-08T13:54:43;96436.50;;;36.51;17.92
74270;BME280;62754;48.252;11.654;2023-07-08T13:57:16;96425.19;;;37.55;16.50
74270;BME280;62754;48.252;11.654;2023-07-08T13:59:44;96429.22;;;37.29;17.32
74270;BME280;62754;48.252;11.654;2023-07-08T14:02:23;96423.78;;;37.34;16.86
74270;BME280;62754;48.252;11.654;2023-07-08T14:04:50;96416.81;;;38.04;16.37
74270;BME280;62754;48.252;11.654;2023-07-08T14:07:22;96415.00;;;38.42;16.01
74270;BME280;62754;48.252;11.654;2023-07-08T14:09:48;96418.66;;;37.85;16.13
74270;BME280;62754;48.252;11.654;2023-07-08T14:12:13;96411.16;;;37.82;15.06
74270;BME280;62754;48.252;11.654;2023-07-08T14:14:42;96422.25;;;38.79;14.84
74270;BME280;62754;48.252;11.654;2023-07-08T14:17:11;96423.41;;;38.92;14.96